Time;durP1;ratioP1;P1;durP2;ratioP2;P2;SDS_P1;SDS_P2;PMS_P1;PMS_P2;Temp;Humidity;BMP_temperature;BMP_pressure;BME280_temperature;BME280_humidity;BME280_pressure;Samples;Min_cycle;Max_cycle;Signal;HPM_P1;HPM_P2
2023/06/20 00:02:17;;;;;;;13.30;8.70;;;;;;;-128.00;-1.00;-1.00;106911;1251;1013330;-70
2023/06/20 00:05:05;;;;;;;13.40;8.00;;;;;;;-128.00;-1.00;-1.00;106861;1251;1012763;-69
2023/06/20 00:07:54;;;;;;;13.80;8.00;;;;;;;-128.00;-1.00;-1.00;106835;1257;1009138;-67
2023/06/20 00:10:42;;;;;;;14.90;7.90;;;;;;;-128.00;-1.00;-1.00;106741;1251;1011613;-68
2023/06/20 00:13:30;;;;;;;12.90;8.20;;;;;;;-128.00;-1.00;-1.00;106978;1251;1012727;-66
2023/06/20 00:16:20;;;;;;;14.50;8.40;;;;;;;-128.00;-1.00;-1.00;106681;1251;1012570;-68
2023/06/20 00:19:08;;;;;;;11.90;7.20;;;;;;;-128.00;-1.00;-1.00;106653;1251;1013194;-68
2023/06/20 00:22:02;;;;;;;14.30;7.70;;;;;;;-128.00;-1.00;-1.00;106905;1251;1009583;-68
2023/06/20 00:24:50;;;;;;;12.70;8.20;;;;;;;-128.00;-1.00;-1.00;106902;1251;1010167;-66
2023/06/20 00:27:38;;;;;;;15.70;8.90;;;;;;;-128.00;-1.00;-1.00;106805;1251;1012976;-66
2023/06/20 00:30:26;;;;;;;12.70;7.90;;;;;;;-128.00;-1.00;-1.00;106816;1251;1013539;-68
2023/06/20 00:33:13;;;;;;;12.60;8.10;;;;;;;-128.00;-1.00;-1.00;106791;1251;1012920;-70
2023/06/20 00:36:03;;;;;;;13.00;7.90;;;;;;;-128.00;-1.00;-1.00;106950;1251;1010226;-69
2023/06/20 00:38:50;;;;;;;14.30;7.80;;;;;;;-128.00;-1.00;-1.00;106681;1256;1010477;-67
2023/06/20 00:41:41;;;;;;;13.80;8.30;;;;;;;-128.00;-1.00;-1.00;106846;1251;1012242;-66
2023/06/20 00:44:29;;;;;;;11.50;7.80;;;;;;;-128.00;-1.00;-1.00;106868;1251;1011869;-68
2023/06/20 00:47:17;;;;;;;11.60;7.60;;;;;;;-128.00;-1.00;-1.00;106863;1251;1012804;-67
2023/06/20 00:50:05;;;;;;;13.10;8.20;;;;;;;-128.00;-1.00;-1.00;106893;1251;1010450;-64
2023/06/20 00:52:59;;;;;;;12.50;8.10;;;;;;;-128.00;-1.00;-1.00;106816;1251;1011178;-65
2023/06/20 00:55:47;;;;;;;14.30;8.70;;;;;;;-128.00;-1.00;-1.00;106745;1251;1011931;-65
2023/06/20 00:58:35;;;;;;;14.60;8.20;;;;;;;-128.00;-1.00;-1.00;106912;1251;1013176;-63
2023/06/20 01:01:24;;;;;;;13.00;8.20;;;;;;;-128.00;-1.00;-1.00;106912;1251;1012849;-66
2023/06/20 01:04:13;;;;;;;14.30;9.00;;;;;;;-128.00;-1.00;-1.00;106961;1251;1009890;-67
2023/06/20 01:07:40;;;;;;;13.00;8.10;;;;;;;-128.00;-1.00;-1.00;106653;1251;1011254;-65
2023/06/20 01:10:44;;;;;;;12.90;8.10;;;;;;;-128.00;-1.00;-1.00;106892;1251;1012197;-68
2023/06/20 01:13:45;;;;;;;13.10;8.00;;;;;;;-128.00;-1.00;-1.00;106801;1251;1012685;-66
2023/06/20 01:16:59;;;;;;;12.50;7.90;;;;;;;-128.00;-1.00;-1.00;106895;1251;1012455;-69
2023/06/20 01:20:13;;;;;;;12.90;7.70;;;;;;;-128.00;-1.00;-1.00;106993;1251;1010153;-68
2023/06/20 01:23:13;;;;;;;12.50;8.10;;;;;;;-128.00;-1.00;-1.00;106947;1251;1010217;-65
2023/06/20 01:26:11;;;;;;;12.50;8.10;;;;;;;-128.00;-1.00;-1.00;106867;1251;1012712;-64
2023/06/20 01:29:36;;;;;;;13.50;8.40;;;;;;;-128.00;-1.00;-1.00;106629;1251;1012231;-65
2023/06/20 01:32:27;;;;;;;12.10;7.90;;;;;;;-128.00;-1.00;-1.00;106711;1251;1012863;-66
2023/06/20 01:35:20;;;;;;;13.30;8.50;;;;;;;-128.00;-1.00;-1.00;106896;1251;1009953;-68
2023/06/20 01:38:12;;;;;;;12.20;7.60;;;;;;;-128.00;-1.00;-1.00;106935;1251;1010897;-66
2023/06/20 01:41:07;;;;;;;12.90;8.40;;;;;;;-128.00;-1.00;-1.00;106683;1251;1012687;-65
2023/06/20 01:43:56;;;;;;;13.50;8.80;;;;;;;-128.00;-1.00;-1.00;106845;1251;1012283;-67
2023/06/20 01:46:47;;;;;;;12.10;7.80;;;;;;;-128.00;-1.00;-1.00;106778;1251;1013141;-65
2023/06/20 01:49:37;;;;;;;12.30;8.00;;;;;;;-128.00;-1.00;-1.00;106740;1251;1009659;-66
2023/06/20 01:52:26;;;;;;;13.20;9.00;;;;;;;-128.00;-1.00;-1.00;106929;1251;1011014;-66
2023/06/20 01:55:15;;;;;;;12.10;8.50;;;;;;;-128.00;-1.00;-1.00;106681;1251;1013159;-68
2023/06/20 01:58:04;;;;;;;12.80;8.60;;;;;;;-128.00;-1.00;-1.00;106770;1251;1011966;-67
2023/06/20 02:00:57;;;;;;;12.70;8.60;;;;;;;-128.00;-1.00;-1.00;106638;1251;1012867;-67
2023/06/20 02:03:48;;;;;;;14.80;8.80;;;;;;;-128.00;-1.00;-1.00;106850;1251;1010606;-68
2023/06/20 02:06:38;;;;;;;12.70;8.80;;;;;;;-128.00;-1.00;-1.00;106832;1251;1011305;-69
2023/06/20 02:09:26;;;;;;;13.20;8.40;;;;;;;-128.00;-1.00;-1.00;106935;1251;1012742;-68
2023/06/20 02:12:15;;;;;;;11.70;7.70;;;;;;;-128.00;-1.00;-1.00;106943;1251;1012405;-68
2023/06/20 02:15:05;;;;;;;12.40;8.50;;;;;;;-128.00;-1.00;-1.00;106759;1251;1013860;-69
2023/06/20 02:17:54;;;;;;;12.10;8.50;;;;;;;-128.00;-1.00;-1.00;106936;1251;1010169;-66
2023/06/20 02:20:43;;;;;;;11.90;7.90;;;;;;;-128.00;-1.00;-1.00;106817;1251;1010495;-66
2023/06/20 02:23:34;;;;;;;12.40;8.40;;;;;;;-128.00;-1.00;-1.00;106690;1251;1012301;-66
2023/06/20 02:26:29;;;;;;;13.60;8.50;;;;;;;-128.00;-1.00;-1.00;106803;1251;1012994;-68
2023/06/20 02:29:18;;;;;;;12.20;7.90;;;;;;;-128.00;-1.00;-1.00;106925;1251;1012097;-65
2023/06/20 02:32:11;;;;;;;12.50;8.20;;;;;;;-128.00;-1.00;-1.00;106928;1251;1010572;-67
2023/06/20 02:35:00;;;;;;;14.10;8.40;;;;;;;-128.00;-1.00;-1.00;106836;1251;1011677;-67
2023/06/20 02:37:52;;;;;;;12.60;8.20;;;;;;;-128.00;-1.00;-1.00;106748;1251;1012445;-66
2023/06/20 02:40:42;;;;;;;12.60;8.70;;;;;;;-128.00;-1.00;-1.00;106902;1255;1011696;-66
2023/06/20 02:43:31;;;;;;;11.50;7.70;;;;;;;-128.00;-1.00;-1.00;106703;1251;1013102;-66
2023/06/20 02:46:29;;;;;;;13.00;7.80;;;;;;;-128.00;-1.00;-1.00;106781;1251;1010292;-67
2023/06/20 02:50:01;;;;;;;12.70;8.30;;;;;;;-128.00;-1.00;-1.00;106786;1251;1011209;-65
2023/06/20 02:53:04;;;;;;;12.20;8.10;;;;;;;-128.00;-1.00;-1.00;106373;1259;1011998;-64
2023/06/20 02:56:09;;;;;;;12.10;7.60;;;;;;;-128.00;-1.00;-1.00;106327;1260;1012301;-65
2023/06/20 02:59:02;;;;;;;12.00;7.80;;;;;;;-128.00;-1.00;-1.00;106340;1258;1012775;-66
2023/06/20 03:01:56;;;;;;;11.80;7.80;;;;;;;-128.00;-1.00;-1.00;106298;1258;1009720;-67
2023/06/20 03:04:47;;;;;;;12.00;8.20;;;;;;;-128.00;-1.00;-1.00;106289;1259;1011397;-68
2023/06/20 03:07:37;;;;;;;12.30;7.50;;;;;;;-128.00;-1.00;-1.00;106323;1260;1012718;-67
2023/06/20 03:10:26;;;;;;;11.70;7.70;;;;;;;-128.00;-1.00;-1.00;106349;1260;1013191;-67
2023/06/20 03:13:16;;;;;;;11.50;7.60;;;;;;;-128.00;-1.00;-1.00;106318;1259;1012115;-66
2023/06/20 03:16:08;;;;;;;12.60;7.80;;;;;;;-128.00;-1.00;-1.00;106300;1260;1009416;-69
2023/06/20 03:18:57;;;;;;;12.40;7.80;;;;;;;-128.00;-1.00;-1.00;106265;1259;1010334;-65
2023/06/20 03:21:46;;;;;;;11.70;7.90;;;;;;;-128.00;-1.00;-1.00;106296;1259;1012757;-68
2023/06/20 03:24:35;;;;;;;12.50;8.00;;;;;;;-128.00;-1.00;-1.00;106369;1259;1011924;-69
2023/06/20 03:27:23;;;;;;;11.40;7.50;;;;;;;-128.00;-1.00;-1.00;106382;1259;1012316;-67
2023/06/20 03:30:11;;;;;;;11.60;8.10;;;;;;;-128.00;-1.00;-1.00;106615;1251;1010429;-67
2023/06/20 03:33:04;;;;;;;13.60;8.00;;;;;;;-128.00;-1.00;-1.00;106678;1251;1010923;-69
2023/06/20 03:35:54;;;;;;;12.40;8.90;;;;;;;-128.00;-1.00;-1.00;106801;1251;1012696;-71
2023/06/20 03:38:42;;;;;;;12.50;8.00;;;;;;;-128.00;-1.00;-1.00;106838;1257;1012579;-69
2023/06/20 03:41:30;;;;;;;12.30;8.00;;;;;;;-128.00;-1.00;-1.00;106800;1251;1012854;-70
2023/06/20 03:44:20;;;;;;;13.70;8.60;;;;;;;-128.00;-1.00;-1.00;106848;1251;1010171;-69
2023/06/20 03:47:08;;;;;;;11.70;8.50;;;;;;;-128.00;-1.00;-1.00;106594;1251;1011409;-71
2023/06/20 03:49:56;;;;;;;14.20;9.50;;;;;;;-128.00;-1.00;-1.00;106754;1251;1011949;-71
2023/06/20 03:52:44;;;;;;;15.00;9.30;;;;;;;-128.00;-1.00;-1.00;106567;1251;1011897;-70
2023/06/20 03:55:32;;;;;;;13.70;8.50;;;;;;;-128.00;-1.00;-1.00;106839;1251;1013277;-71
2023/06/20 03:58:20;;;;;;;14.70;8.70;;;;;;;-128.00;-1.00;-1.00;106597;1251;1010847;-68
2023/06/20 04:01:09;;;;;;;12.80;8.40;;;;;;;-128.00;-1.00;-1.00;106778;1251;1010548;-70
2023/06/20 04:03:57;;;;;;;12.20;8.00;;;;;;;-128.00;-1.00;-1.00;106739;1251;1013145;-69
2023/06/20 04:06:49;;;;;;;15.60;9.10;;;;;;;-128.00;-1.00;-1.00;106913;1251;1012713;-68
2023/06/20 04:09:37;;;;;;;14.20;8.40;;;;;;;-128.00;-1.00;-1.00;106676;1251;1012752;-70
2023/06/20 04:12:25;;;;;;;12.80;8.30;;;;;;;-128.00;-1.00;-1.00;106605;1251;1010041;-70
2023/06/20 04:15:13;;;;;;;13.70;8.70;;;;;;;-128.00;-1.00;-1.00;106804;1251;1010901;-68
2023/06/20 04:18:01;;;;;;;13.70;8.70;;;;;;;-128.00;-1.00;-1.00;106801;1251;1012858;-67
2023/06/20 04:20:50;;;;;;;12.50;8.20;;;;;;;-128.00;-1.00;-1.00;106773;1251;1012235;-72
2023/06/20 04:23:40;;;;;;;13.30;8.50;;;;;;;-128.00;-1.00;-1.00;106911;1251;1012309;-70
2023/06/20 04:26:29;;;;;;;12.40;8.10;;;;;;;-128.00;-1.00;-1.00;106805;1251;1009976;-67
2023/06/20 04:29:17;;;;;;;14.30;8.50;;;;;;;-128.00;-1.00;-1.00;106811;1251;1011214;-69
2023/06/20 04:32:05;;;;;;;13.70;8.40;;;;;;;-128.00;-1.00;-1.00;106805;1251;1012505;-70
2023/06/20 04:34:54;;;;;;;13.60;8.10;;;;;;;-128.00;-1.00;-1.00;106794;1255;1011784;-70
2023/06/20 04:37:48;;;;;;;14.60;9.40;;;;;;;-128.00;-1.00;-1.00;106855;1251;1013139;-65
2023/06/20 04:40:37;;;;;;;15.10;9.00;;;;;;;-128.00;-1.00;-1.00;106831;1251;1008913;-71
2023/06/20 04:43:24;;;;;;;13.60;8.70;;;;;;;-128.00;-1.00;-1.00;106704;1251;1011238;-65
2023/06/20 04:46:15;;;;;;;15.80;9.30;;;;;;;-128.00;-1.00;-1.00;106801;1251;1012151;-70
2023/06/20 04:49:04;;;;;;;14.20;9.20;;;;;;;-128.00;-1.00;-1.00;106817;1251;1013381;-69
2023/06/20 04:51:51;;;;;;;17.20;9.60;;;;;;;-128.00;-1.00;-1.00;106858;1251;1012807;-70
2023/06/20 04:54:40;;;;;;;16.00;10.20;;;;;;;-128.00;-1.00;-1.00;106723;1251;1010317;-71
2023/06/20 04:57:32;;;;;;;14.20;9.60;;;;;;;-128.00;-1.00;-1.00;106852;1251;1011662;-68
2023/06/20 05:00:20;;;;;;;16.10;10.20;;;;;;;-128.00;-1.00;-1.00;106824;1251;1012661;-68
2023/06/20 05:03:09;;;;;;;14.40;9.20;;;;;;;-128.00;-1.00;-1.00;106827;1251;1012743;-68
2023/06/20 05:05:57;;;;;;;13.40;9.10;;;;;;;-128.00;-1.00;-1.00;106767;1251;1012737;-72
2023/06/20 05:08:45;;;;;;;13.00;8.10;;;;;;;-128.00;-1.00;-1.00;106611;1254;1009677;-67
2023/06/20 05:11:33;;;;;;;11.30;7.70;;;;;;;-128.00;-1.00;-1.00;106550;1254;1010696;-69
2023/06/20 05:14:21;;;;;;;14.80;8.50;;;;;;;-128.00;-1.00;-1.00;106659;1254;1011644;-69
2023/06/20 05:17:08;;;;;;;11.50;7.50;;;;;;;-128.00;-1.00;-1.00;106585;1254;1013053;-69
2023/06/20 05:19:57;;;;;;;11.90;7.10;;;;;;;-128.00;-1.00;-1.00;106499;1254;1012950;-68
2023/06/20 05:22:45;;;;;;;11.10;7.40;;;;;;;-128.00;-1.00;-1.00;106675;1254;1010458;-70
2023/06/20 05:25:34;;;;;;;12.30;7.00;;;;;;;-128.00;-1.00;-1.00;106488;1255;1010937;-68
2023/06/20 05:28:22;;;;;;;11.70;6.60;;;;;;;-128.00;-1.00;-1.00;106509;1256;1012582;-70
2023/06/20 05:31:13;;;;;;;11.90;6.40;;;;;;;-128.00;-1.00;-1.00;106536;1255;1012488;-73
2023/06/20 05:34:03;;;;;;;10.10;6.50;;;;;;;-128.00;-1.00;-1.00;106502;1257;1012789;-70
2023/06/20 05:36:51;;;;;;;9.50;5.80;;;;;;;-128.00;-1.00;-1.00;106476;1255;1009461;-73
2023/06/20 05:39:39;;;;;;;10.20;5.90;;;;;;;-128.00;-1.00;-1.00;106599;1251;1011816;-72
2023/06/20 05:42:27;;;;;;;10.10;6.40;;;;;;;-128.00;-1.00;-1.00;106767;1252;1012714;-72
2023/06/20 05:45:17;;;;;;;10.90;6.20;;;;;;;-128.00;-1.00;-1.00;106808;1252;1012153;-71
2023/06/20 05:48:08;;;;;;;9.60;6.00;;;;;;;-128.00;-1.00;-1.00;106551;1254;1013410;-73
2023/06/20 05:50:56;;;;;;;11.80;6.70;;;;;;;-128.00;-1.00;-1.00;106721;1252;1010758;-71
2023/06/20 05:53:44;;;;;;;10.60;6.30;;;;;;;-128.00;-1.00;-1.00;106780;1252;1011589;-71
2023/06/20 05:56:32;;;;;;;10.30;6.20;;;;;;;-128.00;-1.00;-1.00;106827;1252;1013249;-70
2023/06/20 05:59:20;;;;;;;9.50;5.80;;;;;;;-128.00;-1.00;-1.00;106727;1252;1012510;-72
2023/06/20 06:02:07;;;;;;;9.80;6.10;;;;;;;-128.00;-1.00;-1.00;106542;1252;1013388;-73
2023/06/20 06:04:55;;;;;;;10.00;6.00;;;;;;;-128.00;-1.00;-1.00;106650;1253;1009687;-74
2023/06/20 06:07:45;;;;;;;10.70;6.10;;;;;;;-128.00;-1.00;-1.00;106852;1253;1010468;-73
2023/06/20 06:10:33;;;;;;;11.70;6.00;;;;;;;-128.00;-1.00;-1.00;106799;1256;1013062;-72
2023/06/20 06:13:22;;;;;;;9.60;5.70;;;;;;;-128.00;-1.00;-1.00;106904;1252;1012447;-73
2023/06/20 06:16:09;;;;;;;9.60;5.90;;;;;;;-128.00;-1.00;-1.00;106770;1253;1012528;-72
2023/06/20 06:18:59;;;;;;;11.40;6.10;;;;;;;-128.00;-1.00;-1.00;106695;1252;1009675;-73
2023/06/20 06:21:47;;;;;;;9.50;5.90;;;;;;;-128.00;-1.00;-1.00;106756;1252;1010652;-72
2023/06/20 06:24:35;;;;;;;10.00;5.90;;;;;;;-128.00;-1.00;-1.00;106683;1252;1012755;-73
2023/06/20 06:27:23;;;;;;;11.10;6.00;;;;;;;-128.00;-1.00;-1.00;106829;1251;1012227;-74
2023/06/20 06:30:14;;;;;;;10.10;5.90;;;;;;;-128.00;-1.00;-1.00;106621;1251;1012697;-74
2023/06/20 06:33:03;;;;;;;11.40;5.80;;;;;;;-128.00;-1.00;-1.00;106755;1251;1010074;-74
2023/06/20 06:35:55;;;;;;;9.40;5.70;;;;;;;-128.00;-1.00;-1.00;106775;1251;1011302;-75
2023/06/20 06:38:52;;;;;;;10.10;5.50;;;;;;;-128.00;-1.00;-1.00;106798;1251;1012607;-75
2023/06/20 06:41:40;;;;;;;10.80;5.60;;;;;;;-128.00;-1.00;-1.00;106801;1251;1012659;-75
2023/06/20 06:44:28;;;;;;;10.60;5.50;;;;;;;-128.00;-1.00;-1.00;106767;1251;1012751;-75
2023/06/20 06:47:16;;;;;;;11.90;5.50;;;;;;;-128.00;-1.00;-1.00;106787;1251;1009296;-70
2023/06/20 06:50:06;;;;;;;8.50;4.70;;;;;;;-128.00;-1.00;-1.00;106730;1251;1011114;-73
2023/06/20 06:52:55;;;;;;;9.00;5.30;;;;;;;-128.00;-1.00;-1.00;106811;1251;1012784;-73
2023/06/20 06:55:46;;;;;;;8.70;4.70;;;;;;;-128.00;-1.00;-1.00;106959;1251;1012447;-74
2023/06/20 06:58:33;;;;;;;10.90;5.00;;;;;;;-128.00;-1.00;-1.00;106959;1251;1012931;-76
2023/06/20 07:01:21;;;;;;;11.50;4.80;;;;;;;-128.00;-1.00;-1.00;106657;1251;1009740;-73
2023/06/20 07:04:09;;;;;;;8.50;4.80;;;;;;;-128.00;-1.00;-1.00;106767;1251;1011423;-74
2023/06/20 07:06:57;;;;;;;10.70;4.80;;;;;;;-128.00;-1.00;-1.00;106937;1251;1012721;-74
2023/06/20 07:11:36;;;;;;;13.10;5.40;;;;;;;37.32;28.96;99952.41;102531;1296;601074;-72
2023/06/20 07:14:28;;;;;;;10.60;5.60;;;;;;;36.80;29.53;99949.33;105199;1260;59224;-72
2023/06/20 07:17:17;;;;;;;9.70;5.30;;;;;;;36.33;30.21;99942.77;105445;1259;59246;-75
2023/06/20 07:20:08;;;;;;;10.70;5.30;;;;;;;36.04;30.44;99949.33;105280;1266;70341;-75
2023/06/20 07:22:56;;;;;;;9.00;5.40;;;;;;;35.78;30.93;99949.34;105865;1261;67870;-78
2023/06/20 07:25:44;;;;;;;10.30;5.10;;;;;;;35.53;31.32;99950.10;105545;1260;235507;-75
2023/06/20 07:28:31;;;;;;;10.10;5.50;;;;;;;35.65;31.42;99946.39;105389;1265;59506;-75
2023/06/20 07:31:21;;;;;;;9.10;5.00;;;;;;;35.92;31.10;99943.85;105527;1263;60534;-73
2023/06/20 07:34:09;;;;;;;9.70;5.80;;;;;;;35.78;30.98;99941.86;104988;1272;72169;-76
2023/06/20 07:36:57;;;;;;;9.30;5.20;;;;;;;35.42;31.43;99944.63;105178;1273;66327;-76
2023/06/20 07:39:46;;;;;;;10.60;5.40;;;;;;;34.89;31.67;99941.18;105164;1273;71144;-75
2023/06/20 07:42:36;;;;;;;9.00;5.30;;;;;;;34.40;32.39;99939.17;104761;1273;59449;-73
2023/06/20 07:45:28;;;;;;;14.30;5.80;;;;;;;34.14;33.16;99934.36;104743;1273;59409;-73
2023/06/20 07:48:24;;;;;;;9.40;5.10;;;;;;;34.53;32.36;99936.30;104708;1270;71349;-76
2023/06/20 07:51:12;;;;;;;10.70;5.80;;;;;;;34.48;32.17;99936.21;101421;1274;3003177;-74
2023/06/20 07:54:03;;;;;;;12.80;5.90;;;;;;;34.49;32.51;99939.31;104608;1269;72756;-73
2023/06/20 07:56:53;;;;;;;13.70;6.00;;;;;;;34.59;32.29;99940.91;104691;1270;59456;-75
2023/06/20 07:59:42;;;;;;;9.60;5.60;;;;;;;34.52;32.24;99937.46;104481;1276;59285;-75
2023/06/20 08:02:31;;;;;;;8.60;5.20;;;;;;;35.11;31.24;99942.38;104274;1277;71395;-72
2023/06/20 08:05:20;;;;;;;10.20;5.60;;;;;;;36.40;29.66;99942.02;104576;1273;67709;-74
2023/06/20 08:08:08;;;;;;;9.20;5.60;;;;;;;37.33;27.98;99943.97;104692;1270;71466;-75
2023/06/20 08:10:57;;;;;;;9.60;4.70;;;;;;;38.16;27.25;99947.91;105168;1270;59438;-76
2023/06/20 08:13:44;;;;;;;8.20;4.60;;;;;;;38.85;26.14;99941.61;104897;1267;61248;-75
2023/06/20 08:16:32;;;;;;;8.70;4.90;;;;;;;39.21;25.29;99943.17;105026;1271;70302;-75
2023/06/20 08:19:21;;;;;;;17.20;11.70;;;;;;;39.45;24.98;99939.77;104920;1267;68026;-73
2023/06/20 08:22:09;;;;;;;9.80;5.10;;;;;;;39.64;24.77;99939.31;105083;1270;71530;-74
2023/06/20 08:24:57;;;;;;;10.50;4.60;;;;;;;39.96;24.27;99940.66;105404;1262;59294;-76
2023/06/20 08:27:46;;;;;;;8.90;4.40;;;;;;;40.01;24.22;99937.90;104736;1276;59247;-72
2023/06/20 08:30:36;;;;;;;10.50;5.00;;;;;;;40.01;24.31;99934.96;104391;1268;72781;-74
2023/06/20 08:33:25;;;;;;;9.70;5.70;;;;;;;40.08;24.20;99941.48;105077;1273;68339;-74
2023/06/20 08:36:14;;;;;;;12.10;8.10;;;;;;;39.95;24.24;99940.73;104757;1269;72787;-75
2023/06/20 08:39:04;;;;;;;10.00;5.30;;;;;;;39.81;24.45;99947.73;105071;1267;59361;-74
2023/06/20 08:41:53;;;;;;;9.30;4.60;;;;;;;39.61;24.24;99951.92;104986;1268;60055;-76
2023/06/20 08:44:42;;;;;;;8.40;4.70;;;;;;;39.63;24.85;99955.32;105272;1276;71655;-77
2023/06/20 08:47:46;;;;;;;9.40;4.40;;;;;;;39.72;24.74;99954.10;105089;1267;67960;-75
2023/06/20 08:50:36;;;;;;;8.80;4.60;;;;;;;39.57;24.88;99951.39;105092;1267;71612;-75
2023/06/20 08:53:26;;;;;;;7.80;4.40;;;;;;;39.47;24.99;99953.13;104914;1273;59413;-76
2023/06/20 08:56:19;;;;;;;8.40;4.40;;;;;;;39.51;24.69;99952.52;104895;1273;60128;-74
2023/06/20 08:59:10;;;;;;;8.10;4.40;;;;;;;39.68;24.37;99951.35;105214;1262;69938;-74
2023/06/20 09:01:58;;;;;;;7.70;4.30;;;;;;;39.93;24.20;99952.15;105284;1258;67653;-76
2023/06/20 09:05:01;;;;;;;9.50;4.80;;;;;;;40.08;23.95;99942.45;105345;1262;72339;-75
2023/06/20 09:07:54;;;;;;;8.50;4.60;;;;;;;40.26;24.29;99945.33;105397;1259;59269;-74
2023/06/20 09:10:47;;;;;;;7.90;4.40;;;;;;;40.24;24.12;99939.81;105846;1260;59257;-75
2023/06/20 09:13:41;;;;;;;8.90;4.50;;;;;;;40.02;24.47;99943.25;105725;1259;70196;-79
2023/06/20 09:16:31;;;;;;;9.90;4.60;;;;;;;40.22;24.55;99946.32;105596;1256;67858;-77
2023/06/20 09:19:19;;;;;;;9.10;4.40;;;;;;;40.12;24.33;99945.02;105588;1256;71231;-75
2023/06/20 09:22:07;;;;;;;8.40;4.80;;;;;;;39.99;24.72;99945.54;105559;1261;59261;-76
2023/06/20 09:25:01;;;;;;;10.80;4.80;;;;;;;39.88;24.91;99946.99;105573;1267;59245;-71
2023/06/20 09:27:53;;;;;;;9.40;4.80;;;;;;;40.05;24.84;99946.84;105568;1257;71976;-73
2023/06/20 09:30:44;;;;;;;9.60;4.70;;;;;;;40.10;24.44;99945.02;105577;1256;66494;-74
2023/06/20 09:33:37;;;;;;;8.70;5.00;;;;;;;39.88;24.39;99950.16;105533;1263;71153;-71
2023/06/20 09:36:26;;;;;;;9.10;5.00;;;;;;;39.82;24.81;99949.93;105795;1256;59319;-71
2023/06/20 09:39:20;;;;;;;9.60;5.20;;;;;;;39.82;24.55;99955.89;105507;1262;59273;-72
2023/06/20 09:42:13;;;;;;;9.60;5.10;;;;;;;39.73;24.95;99956.07;105527;1263;71463;-74
2023/06/20 09:45:02;;;;;;;9.40;5.00;;;;;;;39.57;25.38;99953.86;105609;1254;66640;-74
2023/06/20 09:47:57;;;;;;;9.50;5.20;;;;;;;39.32;25.46;99954.89;105303;1259;71082;-72
2023/06/20 09:50:50;;;;;;;10.60;5.50;;;;;;;38.98;25.85;99954.02;105772;1259;59219;-73
2023/06/20 09:53:58;;;;;;;8.40;5.10;;;;;;;38.71;26.09;99953.95;105583;1262;59327;-74
2023/06/20 09:56:57;;;;;;;10.70;5.30;;;;;;;38.56;26.53;99955.64;105687;1261;70368;-72
2023/06/20 09:59:50;;;;;;;9.60;5.10;;;;;;;38.30;26.73;99957.16;105543;1258;67994;-72
2023/06/20 10:02:44;;;;;;;9.00;5.40;;;;;;;38.24;27.44;99955.66;105674;1258;71183;-75
2023/06/20 10:05:34;;;;;;;9.20;5.60;;;;;;;38.20;27.57;99955.09;106068;1260;59236;-82
2023/06/20 10:08:25;;;;;;;11.00;5.40;;;;;;;38.24;27.41;99954.17;105855;1264;61140;-76
2023/06/20 10:11:13;;;;;;;11.00;5.20;;;;;;;38.26;27.12;99955.35;105486;1259;1002481;-84
2023/06/20 10:14:04;;;;;;;9.60;5.60;;;;;;;38.20;27.45;99950.77;105855;1260;67942;-80
2023/06/20 10:17:04;;;;;;;9.70;5.70;;;;;;;38.12;28.04;99957.70;105923;1263;72740;-74
2023/06/20 10:19:52;;;;;;;10.00;6.30;;;;;;;37.99;28.24;99957.39;105540;1260;59153;-68
2023/06/20 10:22:43;;;;;;;9.50;5.20;;;;;;;37.91;28.21;99957.92;105981;1254;59424;-70
2023/06/20 10:25:34;;;;;;;9.80;6.10;;;;;;;37.90;28.08;99955.83;105898;1254;69881;-71
2023/06/20 10:28:26;;;;;;;11.30;5.60;;;;;;;37.64;28.25;99954.98;106023;1254;67668;-74
2023/06/20 10:31:15;;;;;;;9.90;5.50;;;;;;;37.55;28.40;99953.34;106008;1259;72859;-74
2023/06/20 10:34:04;;;;;;;9.50;6.20;;;;;;;37.66;28.59;99954.05;105859;1254;59873;-70
2023/06/20 10:36:52;;;;;;;10.70;6.50;;;;;;;37.46;28.42;99952.05;106115;1254;59562;-73
2023/06/20 10:39:57;;;;;;;8.70;5.50;;;;;;;37.35;28.55;99951.35;106004;1254;72066;-73
2023/06/20 10:42:46;;;;;;;12.80;7.80;;;;;;;37.48;28.25;99950.61;106166;1256;66503;-74
2023/06/20 10:45:34;;;;;;;10.50;5.90;;;;;;;37.30;27.84;99948.80;105614;1264;72319;-73
2023/06/20 10:48:24;;;;;;;9.10;5.30;;;;;;;37.34;28.04;99946.63;106204;1255;59266;-69
2023/06/20 10:51:18;;;;;;;10.70;6.90;;;;;;;37.35;27.24;99945.10;105792;1254;60189;-78
2023/06/20 10:54:13;;;;;;;9.30;5.30;;;;;;;37.35;27.52;99949.28;106435;1254;71019;-78
2023/06/20 10:57:04;;;;;;;9.00;5.90;;;;;;;37.17;27.30;99939.11;106019;1262;66815;-73
2023/06/20 10:59:52;;;;;;;10.90;6.30;;;;;;;37.28;27.32;99950.52;106090;1254;72763;-79
2023/06/20 11:02:41;;;;;;;10.00;6.40;;;;;;;37.12;27.27;99951.37;105747;1254;59569;-73
2023/06/20 11:05:29;;;;;;;10.10;6.40;;;;;;;37.03;27.02;99946.02;106027;1254;59257;-73
2023/06/20 11:08:25;;;;;;;9.80;5.80;;;;;;;36.80;27.82;99945.77;106263;1254;71930;-71
2023/06/20 11:11:13;;;;;;;10.20;5.80;;;;;;;36.33;28.75;99936.90;105544;1259;68471;-72
2023/06/20 11:14:17;;;;;;;10.20;5.80;;;;;;;35.80;29.02;99937.65;105631;1257;72416;-73
2023/06/20 11:17:05;;;;;;;8.90;5.90;;;;;;;35.28;28.77;99939.03;105801;1261;59243;-72
2023/06/20 11:19:59;;;;;;;10.90;5.90;;;;;;;34.91;29.47;99934.70;105533;1254;59244;-72
2023/06/20 11:22:48;;;;;;;9.20;6.10;;;;;;;34.76;30.17;99936.50;105302;1262;71520;-73
2023/06/20 11:25:38;;;;;;;9.10;6.20;;;;;;;34.39;30.94;99939.67;105681;1260;66697;-71
2023/06/20 11:28:26;;;;;;;9.90;6.40;;;;;;;34.00;31.54;99936.55;105404;1258;71242;-71
2023/06/20 11:31:14;;;;;;;11.10;6.10;;;;;;;33.74;31.91;99927.61;105398;1260;59353;-72
2023/06/20 11:34:11;;;;;;;11.30;6.60;;;;;;;33.52;31.77;99934.01;105298;1260;59360;-73
2023/06/20 11:36:59;;;;;;;9.20;6.40;;;;;;;33.00;32.43;99941.17;105421;1262;71546;-72
2023/06/20 11:39:47;;;;;;;11.10;6.80;;;;;;;32.47;33.17;99937.70;105354;1259;66727;-72
2023/06/20 11:42:38;;;;;;;10.60;6.50;;;;;;;31.96;34.02;99932.93;105663;1259;71126;-71
2023/06/20 11:45:26;;;;;;;10.40;6.90;;;;;;;31.51;34.89;99930.36;105442;1259;59487;-69
2023/06/20 11:48:16;;;;;;;11.60;7.10;;;;;;;31.05;36.20;99929.13;105197;1263;59321;-69
2023/06/20 11:51:06;;;;;;;12.20;6.50;;;;;;;30.65;37.50;99928.34;105395;1260;71405;-69
2023/06/20 11:54:08;;;;;;;9.50;6.40;;;;;;;30.39;38.16;99923.36;105447;1256;66793;-68
2023/06/20 11:56:56;;;;;;;10.90;6.70;;;;;;;30.20;38.32;99922.08;105876;1256;71481;-69
2023/06/20 11:59:44;;;;;;;9.60;6.60;;;;;;;30.05;39.11;99926.14;105474;1256;59337;-71
2023/06/20 12:02:37;;;;;;;10.30;6.90;;;;;;;29.92;38.96;99928.08;105441;1259;59324;-69
2023/06/20 12:05:32;;;;;;;10.40;7.00;;;;;;;29.77;38.88;99925.41;105578;1259;71409;-66
2023/06/20 12:08:19;;;;;;;9.90;6.40;;;;;;;29.58;39.67;99924.66;105406;1260;68274;-69
2023/06/20 12:11:08;;;;;;;10.40;6.90;;;;;;;29.47;40.04;99927.61;105517;1257;71702;-68
2023/06/20 12:13:57;;;;;;;11.70;6.80;;;;;;;29.36;39.73;99930.00;105347;1256;59208;-68
2023/06/20 12:16:45;;;;;;;11.60;6.70;;;;;;;29.28;40.18;99931.10;105979;1254;59634;-68
2023/06/20 12:19:36;;;;;;;9.20;6.20;;;;;;;29.12;40.31;99934.08;105693;1254;72258;-71
2023/06/20 12:22:25;;;;;;;11.20;7.30;;;;;;;29.02;40.68;99932.95;105687;1259;66320;-70
2023/06/20 12:25:13;;;;;;;10.90;7.90;;;;;;;28.87;41.06;99933.61;105573;1258;71080;-70
2023/06/20 12:28:02;;;;;;;14.30;9.50;;;;;;;28.81;41.13;99931.89;105642;1254;59391;-70
2023/06/20 12:30:50;;;;;;;11.80;6.90;;;;;;;28.75;41.16;99930.45;105586;1254;60110;-68
2023/06/20 12:33:39;;;;;;;10.80;7.00;;;;;;;28.68;41.23;99930.32;105720;1254;72279;-70
2023/06/20 12:36:27;;;;;;;11.30;6.80;;;;;;;28.58;41.58;99927.52;105785;1254;68250;-70
2023/06/20 12:39:16;;;;;;;11.30;6.50;;;;;;;28.47;41.62;99925.31;104810;1255;1003122;-69
2023/06/20 12:42:06;;;;;;;10.50;6.90;;;;;;;28.42;42.18;99915.14;105685;1254;59760;-70
2023/06/20 12:44:54;;;;;;;12.30;8.00;;;;;;;28.33;42.56;99911.56;105915;1254;60356;-70
2023/06/20 12:47:43;;;;;;;10.60;7.30;;;;;;;28.21;43.11;99911.84;105788;1255;72884;-72
2023/06/20 12:50:32;;;;;;;9.90;6.80;;;;;;;28.04;42.84;99909.81;105952;1259;67851;-72
2023/06/20 12:53:20;;;;;;;12.50;8.40;;;;;;;27.92;43.61;99911.59;106058;1254;72432;-72
2023/06/20 12:56:08;;;;;;;12.20;7.40;;;;;;;27.82;44.01;99915.23;106236;1254;59392;-74
2023/06/20 12:58:58;;;;;;;12.60;7.20;;;;;;;27.80;44.19;99916.28;106307;1254;60440;-72
2023/06/20 17:16:18;;;;;;;12.40;5.90;;;;;;;22.19;61.14;99890.66;102867;1291;602536;-72
2023/06/20 17:19:05;;;;;;;11.30;6.10;;;;;;;22.08;61.74;99891.77;105799;1260;59251;-68